sensor_id;sensor_type;location;lat;lon;timestamp;temperature;humidity
3678;DHT22;1855;50.934;6.958;2023-03-13T00:00:26;10.40;95.90
3678;DHT22;1855;50.934;6.958;2023-03-13T00:02:52;10.50;96.00
3678;DHT22;1855;50.934;6.958;2023-03-13T00:05:19;10.50;95.90
3678;DHT22;1855;50.934;6.958;2023-03-13T00:07:47;10.50;95.80
3678;DHT22;1855;50.934;6.958;2023-03-13T00:10:14;10.60;95.60
3678;DHT22;1855;50.934;6.958;2023-03-13T00:12:41;10.60;95.60
3678;DHT22;1855;50.934;6.958;2023-03-13T00:15:08;10.60;95.60
3678;DHT22;1855;50.934;6.958;2023-03-13T00:17:35;10.70;95.70
3678;DHT22;1855;50.934;6.958;2023-03-13T00:20:03;10.70;95.60
3678;DHT22;1855;50.934;6.958;2023-03-13T00:22:30;10.70;95.30
3678;DHT22;1855;50.934;6.958;2023-03-13T00:24:58;10.80;95.00
3678;DHT22;1855;50.934;6.958;2023-03-13T00:27:25;10.80;95.10
3678;DHT22;1855;50.934;6.958;2023-03-13T00:29:52;10.90;94.90
3678;DHT22;1855;50.934;6.958;2023-03-13T00:32:18;10.90;94.80
3678;DHT22;1855;50.934;6.958;2023-03-13T00:34:45;11.00;94.70
3678;DHT22;1855;50.934;6.958;2023-03-13T00:37:12;11.00;94.40
3678;DHT22;1855;50.934;6.958;2023-03-13T00:39:39;11.10;94.80
3678;DHT22;1855;50.934;6.958;2023-03-13T00:42:07;11.10;94.80
3678;DHT22;1855;50.934;6.958;2023-03-13T00:44:34;11.00;95.00
3678;DHT22;1855;50.934;6.958;2023-03-13T00:47:00;11.10;96.60
3678;DHT22;1855;50.934;6.958;2023-03-13T00:49:29;11.00;97.00
3678;DHT22;1855;50.934;6.958;2023-03-13T00:51:56;10.90;98.50
3678;DHT22;1855;50.934;6.958;2023-03-13T00:54:23;10.70;98.80
3678;DHT22;1855;50.934;6.958;2023-03-13T00:56:50;10.70;99.00
3678;DHT22;1855;50.934;6.958;2023-03-13T00:59:18;10.70;99.00
3678;DHT22;1855;50.934;6.958;2023-03-13T01:01:44;10.70;99.00
3678;DHT22;1855;50.934;6.958;2023-03-13T01:04:12;10.70;99.50
3678;DHT22;1855;50.934;6.958;2023-03-13T01:06:40;10.70;99.00
3678;DHT22;1855;50.934;6.958;2023-03-13T01:09:09;10.70;99.40
3678;DHT22;1855;50.934;6.958;2023-03-13T01:11:38;10.70;99.40
3678;DHT22;1855;50.934;6.958;2023-03-13T01:14:06;10.80;99.60
3678;DHT22;1855;50.934;6.958;2023-03-13T01:16:36;10.80;99.80
3678;DHT22;1855;50.934;6.958;2023-03-13T01:19:05;10.80;99.30
3678;DHT22;1855;50.934;6.958;2023-03-13T01:21:32;10.80;99.80
3678;DHT22;1855;50.934;6.958;2023-03-13T01:23:59;10.80;99.60
3678;DHT22;1855;50.934;6.958;2023-03-13T01:26:26;10.70;99.90
3678;DHT22;1855;50.934;6.958;2023-03-13T01:28:54;10.70;99.80
3678;DHT22;1855;50.934;6.958;2023-03-13T01:31:23;10.70;99.90
3678;DHT22;1855;50.934;6.958;2023-03-13T01:33:54;10.70;99.90
3678;DHT22;1855;50.934;6.958;2023-03-13T01:36:21;10.70;99.90
3678;DHT22;1855;50.934;6.958;2023-03-13T01:38:49;10.70;99.90
3678;DHT22;1855;50.934;6.958;2023-03-13T01:41:17;10.80;99.90
3678;DHT22;1855;50.934;6.958;2023-03-13T01:43:45;10.80;99.90
3678;DHT22;1855;50.934;6.958;2023-03-13T01:46:13;10.90;99.90
3678;DHT22;1855;50.934;6.958;2023-03-13T01:48:44;11.00;99.90
3678;DHT22;1855;50.934;6.958;2023-03-13T01:51:17;11.10;99.40
3678;DHT22;1855;50.934;6.958;2023-03-13T01:53:49;11.20;99.20
3678;DHT22;1855;50.934;6.958;2023-03-13T01:56:19;11.30;98.60
3678;DHT22;1855;50.934;6.958;2023-03-13T01:58:48;11.30;98.60
3678;DHT22;1855;50.934;6.958;2023-03-13T02:01:17;11.40;98.30
3678;DHT22;1855;50.934;6.958;2023-03-13T02:03:45;11.40;98.40
3678;DHT22;1855;50.934;6.958;2023-03-13T02:06:15;11.50;97.80
3678;DHT22;1855;50.934;6.958;2023-03-13T02:08:44;11.60;98.00
3678;DHT22;1855;50.934;6.958;2023-03-13T02:11:20;11.50;97.90
3678;DHT22;1855;50.934;6.958;2023-03-13T02:13:50;11.50;98.20
3678;DHT22;1855;50.934;6.958;2023-03-13T02:16:18;11.50;98.30
3678;DHT22;1855;50.934;6.958;2023-03-13T02:18:47;11.50;98.70
3678;DHT22;1855;50.934;6.958;2023-03-13T02:21:22;11.40;99.00
3678;DHT22;1855;50.934;6.958;2023-03-13T02:23:55;11.40;99.50
3678;DHT22;1855;50.934;6.958;2023-03-13T02:26:25;11.40;99.90
3678;DHT22;1855;50.934;6.958;2023-03-13T02:28:52;11.40;99.90
3678;DHT22;1855;50.934;6.958;2023-03-13T02:31:19;11.20;99.90
3678;DHT22;1855;50.934;6.958;2023-03-13T02:33:46;11.10;99.90
3678;DHT22;1855;50.934;6.958;2023-03-13T02:36:14;11.00;99.90
3678;DHT22;1855;50.934;6.958;2023-03-13T02:38:46;10.90;99.90
3678;DHT22;1855;50.934;6.958;2023-03-13T02:41:14;10.70;99.90
3678;DHT22;1855;50.934;6.958;2023-03-13T02:43:43;10.60;99.90
3678;DHT22;1855;50.934;6.958;2023-03-13T02:46:11;10.50;99.90
3678;DHT22;1855;50.934;6.958;2023-03-13T02:48:40;10.40;99.90
3678;DHT22;1855;50.934;6.958;2023-03-13T02:51:16;10.30;99.90
3678;DHT22;1855;50.934;6.958;2023-03-13T02:53:45;10.30;99.90
3678;DHT22;1855;50.934;6.958;2023-03-13T02:56:14;10.30;99.90
3678;DHT22;1855;50.934;6.958;2023-03-13T02:58:44;10.30;99.90
3678;DHT22;1855;50.934;6.958;2023-03-13T03:01:11;10.30;99.90
3678;DHT22;1855;50.934;6.958;2023-03-13T03:03:37;10.30;99.90
3678;DHT22;1855;50.934;6.958;2023-03-13T03:06:05;10.30;99.90
3678;DHT22;1855;50.934;6.958;2023-03-13T03:08:33;10.30;99.90
3678;DHT22;1855;50.934;6.958;2023-03-13T03:11:00;10.30;99.90
3678;DHT22;1855;50.934;6.958;2023-03-13T03:13:27;10.40;99.90
3678;DHT22;1855;50.934;6.958;2023-03-13T03:15:55;10.30;99.90
3678;DHT22;1855;50.934;6.958;2023-03-13T03:18:22;10.40;99.90
3678;DHT22;1855;50.934;6.958;2023-03-13T03:20:49;10.30;99.90
3678;DHT22;1855;50.934;6.958;2023-03-13T03:23:16;10.40;99.90
3678;DHT22;1855;50.934;6.958;2023-03-13T03:25:42;10.40;99.90
3678;DHT22;1855;50.934;6.958;2023-03-13T03:28:09;10.40;99.90
3678;DHT22;1855;50.934;6.958;2023-03-13T03:30:36;10.40;99.90
3678;DHT22;1855;50.934;6.958;2023-03-13T03:33:04;10.40;99.90
3678;DHT22;1855;50.934;6.958;2023-03-13T03:35:31;10.50;99.90
3678;DHT22;1855;50.934;6.958;2023-03-13T03:37:58;10.50;99.90
3678;DHT22;1855;50.934;6.958;2023-03-13T03:40:25;10.60;99.90
3678;DHT22;1855;50.934;6.958;2023-03-13T03:42:52;10.70;99.90
3678;DHT22;1855;50.934;6.958;2023-03-13T03:45:19;10.70;99.90
3678;DHT22;1855;50.934;6.958;2023-03-13T03:47:46;10.80;99.90
3678;DHT22;1855;50.934;6.958;2023-03-13T03:50:14;10.80;99.90
3678;DHT22;1855;50.934;6.958;2023-03-13T03:52:41;10.80;99.90
3678;DHT22;1855;50.934;6.958;2023-03-13T03:55:08;10.90;99.90
3678;DHT22;1855;50.934;6.958;2023-03-13T03:57:35;10.90;99.90
3678;DHT22;1855;50.934;6.958;2023-03-13T04:00:02;10.90;99.90
3678;DHT22;1855;50.934;6.958;2023-03-13T04:02:32;10.90;99.90
3678;DHT22;1855;50.934;6.958;2023-03-13T04:04:59;11.00;99.90
3678;DHT22;1855;50.934;6.958;2023-03-13T04:07:27;11.10;99.90
3678;DHT22;1855;50.934;6.958;2023-03-13T04:09:53;11.20;99.90
3678;DHT22;1855;50.934;6.958;2023-03-13T04:12:20;11.20;99.90
3678;DHT22;1855;50.934;6.958;2023-03-13T04:14:47;11.30;99.90
3678;DHT22;1855;50.934;6.958;2023-03-13T04:17:14;11.30;99.90
3678;DHT22;1855;50.934;6.958;2023-03-13T04:19:41;11.30;99.90
3678;DHT22;1855;50.934;6.958;2023-03-13T04:22:07;11.30;99.90
3678;DHT22;1855;50.934;6.958;2023-03-13T04:24:35;11.40;99.90
3678;DHT22;1855;50.934;6.958;2023-03-13T04:27:03;11.50;99.90
3678;DHT22;1855;50.934;6.958;2023-03-13T04:29:31;11.50;99.90
3678;DHT22;1855;50.934;6.958;2023-03-13T04:31:58;11.50;99.90
3678;DHT22;1855;50.934;6.958;2023-03-13T04:34:24;11.40;99.90
3678;DHT22;1855;50.934;6.958;2023-03-13T04:36:51;11.40;99.90
3678;DHT22;1855;50.934;6.958;2023-03-13T04:39:18;11.40;99.90
3678;DHT22;1855;50.934;6.958;2023-03-13T04:41:50;11.40;99.90
3678;DHT22;1855;50.934;6.958;2023-03-13T04:44:17;11.30;99.90
3678;DHT22;1855;50.934;6.958;2023-03-13T04:46:44;11.40;99.90
3678;DHT22;1855;50.934;6.958;2023-03-13T04:49:11;11.40;99.90
3678;DHT22;1855;50.934;6.958;2023-03-13T04:51:39;11.40;99.90
3678;DHT22;1855;50.934;6.958;2023-03-13T04:54:05;11.40;99.90
3678;DHT22;1855;50.934;6.958;2023-03-13T04:56:32;11.40;99.90
3678;DHT22;1855;50.934;6.958;2023-03-13T04:59:00;11.40;99.90
3678;DHT22;1855;50.934;6.958;2023-03-13T05:01:27;11.40;99.90
3678;DHT22;1855;50.934;6.958;2023-03-13T05:03:54;11.50;99.90
3678;DHT22;1855;50.934;6.958;2023-03-13T05:06:21;11.50;99.90
3678;DHT22;1855;50.934;6.958;2023-03-13T05:08:48;11.50;99.90
3678;DHT22;1855;50.934;6.958;2023-03-13T05:11:15;11.50;99.90
3678;DHT22;1855;50.934;6.958;2023-03-13T05:13:41;11.60;99.90
3678;DHT22;1855;50.934;6.958;2023-03-13T05:16:09;11.60;99.90
3678;DHT22;1855;50.934;6.958;2023-03-13T05:18:36;11.60;99.90
3678;DHT22;1855;50.934;6.958;2023-03-13T05:21:04;11.70;99.90
3678;DHT22;1855;50.934;6.958;2023-03-13T05:23:30;11.70;99.90
3678;DHT22;1855;50.934;6.958;2023-03-13T05:25:58;11.70;99.90
3678;DHT22;1855;50.934;6.958;2023-03-13T05:28:25;11.70;99.90
3678;DHT22;1855;50.934;6.958;2023-03-13T05:30:52;11.70;99.90
3678;DHT22;1855;50.934;6.958;2023-03-13T05:33:20;11.70;99.90
3678;DHT22;1855;50.934;6.958;2023-03-13T05:35:47;11.70;99.90
3678;DHT22;1855;50.934;6.958;2023-03-13T05:38:14;11.80;99.90
3678;DHT22;1855;50.934;6.958;2023-03-13T05:40:41;11.80;99.90
3678;DHT22;1855;50.934;6.958;2023-03-13T05:43:08;11.80;99.90
3678;DHT22;1855;50.934;6.958;2023-03-13T05:45:35;11.90;99.90
3678;DHT22;1855;50.934;6.958;2023-03-13T05:48:01;11.90;99.90
3678;DHT22;1855;50.934;6.958;2023-03-13T05:50:30;11.90;99.90
3678;DHT22;1855;50.934;6.958;2023-03-13T05:52:56;11.90;99.90
3678;DHT22;1855;50.934;6.958;2023-03-13T05:55:23;11.90;99.90
3678;DHT22;1855;50.934;6.958;2023-03-13T05:57:50;11.80;99.90
3678;DHT22;1855;50.934;6.958;2023-03-13T06:00:17;11.80;99.90
3678;DHT22;1855;50.934;6.958;2023-03-13T06:02:44;11.80;99.90
3678;DHT22;1855;50.934;6.958;2023-03-13T06:05:11;11.70;99.90
3678;DHT22;1855;50.934;6.958;2023-03-13T06:07:39;11.80;99.90
3678;DHT22;1855;50.934;6.958;2023-03-13T06:10:06;11.80;99.90
3678;DHT22;1855;50.934;6.958;2023-03-13T06:12:33;11.90;99.90
3678;DHT22;1855;50.934;6.958;2023-03-13T06:15:00;11.90;99.90
3678;DHT22;1855;50.934;6.958;2023-03-13T06:17:27;12.00;99.90
3678;DHT22;1855;50.934;6.958;2023-03-13T06:19:54;12.10;99.90
3678;DHT22;1855;50.934;6.958;2023-03-13T06:22:20;12.10;99.90
3678;DHT22;1855;50.934;6.958;2023-03-13T06:24:48;12.20;99.90
3678;DHT22;1855;50.934;6.958;2023-03-13T06:27:15;12.20;99.90
3678;DHT22;1855;50.934;6.958;2023-03-13T06:29:42;12.20;99.90
3678;DHT22;1855;50.934;6.958;2023-03-13T06:32:09;12.20;99.90
3678;DHT22;1855;50.934;6.958;2023-03-13T06:34:36;12.30;99.90
3678;DHT22;1855;50.934;6.958;2023-03-13T06:37:03;12.30;99.90
3678;DHT22;1855;50.934;6.958;2023-03-13T06:39:29;12.30;99.90
3678;DHT22;1855;50.934;6.958;2023-03-13T06:41:58;12.40;99.90
3678;DHT22;1855;50.934;6.958;2023-03-13T06:44:24;12.40;99.90
3678;DHT22;1855;50.934;6.958;2023-03-13T06:46:51;12.50;99.90
3678;DHT22;1855;50.934;6.958;2023-03-13T06:49:18;12.50;99.90
3678;DHT22;1855;50.934;6.958;2023-03-13T06:51:45;12.60;99.90
3678;DHT22;1855;50.934;6.958;2023-03-13T06:54:11;12.60;99.90
3678;DHT22;1855;50.934;6.958;2023-03-13T06:56:38;12.70;99.90
3678;DHT22;1855;50.934;6.958;2023-03-13T06:59:06;12.80;99.90
3678;DHT22;1855;50.934;6.958;2023-03-13T07:01:33;12.90;99.90
3678;DHT22;1855;50.934;6.958;2023-03-13T07:04:00;13.00;99.90
3678;DHT22;1855;50.934;6.958;2023-03-13T07:06:27;13.00;99.90
3678;DHT22;1855;50.934;6.958;2023-03-13T07:08:53;13.10;99.90
3678;DHT22;1855;50.934;6.958;2023-03-13T07:11:20;13.20;99.90
3678;DHT22;1855;50.934;6.958;2023-03-13T07:13:47;13.20;99.90
3678;DHT22;1855;50.934;6.958;2023-03-13T07:16:15;13.20;99.90
3678;DHT22;1855;50.934;6.958;2023-03-13T07:18:42;13.30;99.90
3678;DHT22;1855;50.934;6.958;2023-03-13T07:21:10;13.30;99.90
3678;DHT22;1855;50.934;6.958;2023-03-13T07:23:37;13.40;99.90
3678;DHT22;1855;50.934;6.958;2023-03-13T07:26:06;13.50;99.90
3678;DHT22;1855;50.934;6.958;2023-03-13T07:28:33;13.50;99.90
3678;DHT22;1855;50.934;6.958;2023-03-13T07:31:04;13.50;99.90
3678;DHT22;1855;50.934;6.958;2023-03-13T07:33:33;13.60;99.90
3678;DHT22;1855;50.934;6.958;2023-03-13T07:35:59;13.70;98.60
3678;DHT22;1855;50.934;6.958;2023-03-13T07:38:26;13.80;98.40
3678;DHT22;1855;50.934;6.958;2023-03-13T07:40:54;13.80;97.70
3678;DHT22;1855;50.934;6.958;2023-03-13T07:43:22;13.80;97.80
3678;DHT22;1855;50.934;6.958;2023-03-13T07:45:51;13.90;97.10
3678;DHT22;1855;50.934;6.958;2023-03-13T07:48:18;14.00;96.70
3678;DHT22;1855;50.934;6.958;2023-03-13T07:50:47;14.10;96.70
3678;DHT22;1855;50.934;6.958;2023-03-13T07:53:14;14.20;94.90
3678;DHT22;1855;50.934;6.958;2023-03-13T07:55:54;14.30;94.60
3678;DHT22;1855;50.934;6.958;2023-03-13T07:58:22;14.40;94.90
3678;DHT22;1855;50.934;6.958;2023-03-13T08:00:49;14.40;95.00
3678;DHT22;1855;50.934;6.958;2023-03-13T08:03:16;14.30;94.80
3678;DHT22;1855;50.934;6.958;2023-03-13T08:05:42;14.40;93.80
3678;DHT22;1855;50.934;6.958;2023-03-13T08:08:11;14.40;93.50
3678;DHT22;1855;50.934;6.958;2023-03-13T08:10:38;14.40;93.20
3678;DHT22;1855;50.934;6.958;2023-03-13T08:13:04;14.40;93.20
3678;DHT22;1855;50.934;6.958;2023-03-13T08:15:31;14.40;92.80
3678;DHT22;1855;50.934;6.958;2023-03-13T08:17:58;14.40;93.30
3678;DHT22;1855;50.934;6.958;2023-03-13T08:20:24;14.40;93.20
3678;DHT22;1855;50.934;6.958;2023-03-13T08:22:51;14.40;93.30
3678;DHT22;1855;50.934;6.958;2023-03-13T08:25:21;14.30;93.10
3678;DHT22;1855;50.934;6.958;2023-03-13T08:27:48;14.30;93.30
3678;DHT22;1855;50.934;6.958;2023-03-13T08:30:15;14.30;93.50
3678;DHT22;1855;50.934;6.958;2023-03-13T08:32:42;14.20;93.10
3678;DHT22;1855;50.934;6.958;2023-03-13T08:35:09;14.20;93.30
3678;DHT22;1855;50.934;6.958;2023-03-13T08:37:35;14.30;94.40
3678;DHT22;1855;50.934;6.958;2023-03-13T08:40:03;14.10;95.70
3678;DHT22;1855;50.934;6.958;2023-03-13T08:42:37;14.00;95.80
3678;DHT22;1855;50.934;6.958;2023-03-13T08:45:06;13.90;97.10
3678;DHT22;1855;50.934;6.958;2023-03-13T08:47:33;13.70;98.40
3678;DHT22;1855;50.934;6.958;2023-03-13T08:49:59;13.50;99.20
3678;DHT22;1855;50.934;6.958;2023-03-13T08:52:26;13.50;98.90
3678;DHT22;1855;50.934;6.958;2023-03-13T08:54:53;13.50;98.90
3678;DHT22;1855;50.934;6.958;2023-03-13T08:57:19;13.60;98.40
3678;DHT22;1855;50.934;6.958;2023-03-13T08:59:48;13.70;98.10
3678;DHT22;1855;50.934;6.958;2023-03-13T09:02:16;13.80;97.20
3678;DHT22;1855;50.934;6.958;2023-03-13T09:04:45;13.90;97.30
3678;DHT22;1855;50.934;6.958;2023-03-13T09:07:12;13.90;96.90
3678;DHT22;1855;50.934;6.958;2023-03-13T09:09:39;14.00;96.40
3678;DHT22;1855;50.934;6.958;2023-03-13T09:12:07;14.10;96.60
3678;DHT22;1855;50.934;6.958;2023-03-13T09:14:34;14.20;96.30
3678;DHT22;1855;50.934;6.958;2023-03-13T09:17:02;14.20;96.30
3678;DHT22;1855;50.934;6.958;2023-03-13T09:19:29;14.30;95.80
3678;DHT22;1855;50.934;6.958;2023-03-13T09:21:56;14.20;96.10
3678;DHT22;1855;50.934;6.958;2023-03-13T09:24:23;14.20;96.60
3678;DHT22;1855;50.934;6.958;2023-03-13T09:26:50;14.20;96.50
3678;DHT22;1855;50.934;6.958;2023-03-13T09:29:16;14.30;96.10
3678;DHT22;1855;50.934;6.958;2023-03-13T09:31:43;14.40;96.00
3678;DHT22;1855;50.934;6.958;2023-03-13T09:34:11;14.40;96.20
3678;DHT22;1855;50.934;6.958;2023-03-13T09:36:38;14.40;95.90
3678;DHT22;1855;50.934;6.958;2023-03-13T09:39:05;14.40;95.80
3678;DHT22;1855;50.934;6.958;2023-03-13T09:41:35;14.40;95.90
3678;DHT22;1855;50.934;6.958;2023-03-13T09:44:09;14.50;96.10
3678;DHT22;1855;50.934;6.958;2023-03-13T09:46:39;14.50;96.00
3678;DHT22;1855;50.934;6.958;2023-03-13T09:49:21;14.50;96.20
3678;DHT22;1855;50.934;6.958;2023-03-13T09:51:52;14.50;96.40
3678;DHT22;1855;50.934;6.958;2023-03-13T09:54:24;14.50;96.20
3678;DHT22;1855;50.934;6.958;2023-03-13T09:56:53;14.60;96.10
3678;DHT22;1855;50.934;6.958;2023-03-13T09:59:26;14.50;96.10
3678;DHT22;1855;50.934;6.958;2023-03-13T10:01:56;14.60;96.10
3678;DHT22;1855;50.934;6.958;2023-03-13T10:04:34;14.70;95.90
3678;DHT22;1855;50.934;6.958;2023-03-13T10:07:01;14.80;94.80
3678;DHT22;1855;50.934;6.958;2023-03-13T10:09:30;14.90;94.70
3678;DHT22;1855;50.934;6.958;2023-03-13T10:12:04;15.00;94.60
3678;DHT22;1855;50.934;6.958;2023-03-13T10:14:38;15.20;94.30
3678;DHT22;1855;50.934;6.958;2023-03-13T10:17:14;15.40;93.50
3678;DHT22;1855;50.934;6.958;2023-03-13T10:19:52;15.50;94.00
3678;DHT22;1855;50.934;6.958;2023-03-13T10:22:23;15.50;93.20
3678;DHT22;1855;50.934;6.958;2023-03-13T10:24:54;15.50;92.90
3678;DHT22;1855;50.934;6.958;2023-03-13T10:27:22;15.60;93.90
3678;DHT22;1855;50.934;6.958;2023-03-13T10:29:49;15.70;95.50
3678;DHT22;1855;50.934;6.958;2023-03-13T10:32:17;15.80;94.00
3678;DHT22;1855;50.934;6.958;2023-03-13T10:34:52;15.90;92.30
3678;DHT22;1855;50.934;6.958;2023-03-13T10:37:23;16.20;91.60
3678;DHT22;1855;50.934;6.958;2023-03-13T10:39:50;16.70;88.20
3678;DHT22;1855;50.934;6.958;2023-03-13T10:42:21;16.90;87.20
3678;DHT22;1855;50.934;6.958;2023-03-13T10:44:55;17.10;84.50
3678;DHT22;1855;50.934;6.958;2023-03-13T10:47:22;17.00;83.70
3678;DHT22;1855;50.934;6.958;2023-03-13T10:49:51;16.90;84.70
3678;DHT22;1855;50.934;6.958;2023-03-13T10:52:33;16.80;83.80
3678;DHT22;1855;50.934;6.958;2023-03-13T10:55:01;16.80;84.50
3678;DHT22;1855;50.934;6.958;2023-03-13T10:57:31;16.80;84.60
3678;DHT22;1855;50.934;6.958;2023-03-13T10:59:58;17.00;86.60
3678;DHT22;1855;50.934;6.958;2023-03-13T11:02:30;17.10;81.10
3678;DHT22;1855;50.934;6.958;2023-03-13T11:04:59;17.20;80.90
3678;DHT22;1855;50.934;6.958;2023-03-13T11:07:29;17.40;79.30
3678;DHT22;1855;50.934;6.958;2023-03-13T11:10:01;17.40;79.60
3678;DHT22;1855;50.934;6.958;2023-03-13T11:12:33;17.30;80.50
3678;DHT22;1855;50.934;6.958;2023-03-13T11:15:01;17.30;81.10
3678;DHT22;1855;50.934;6.958;2023-03-13T11:17:33;17.40;81.40
3678;DHT22;1855;50.934;6.958;2023-03-13T11:20:11;17.40;80.70
3678;DHT22;1855;50.934;6.958;2023-03-13T11:22:50;17.70;80.00
3678;DHT22;1855;50.934;6.958;2023-03-13T11:25:22;18.10;77.60
3678;DHT22;1855;50.934;6.958;2023-03-13T11:28:13;18.30;75.20
3678;DHT22;1855;50.934;6.958;2023-03-13T11:30:55;18.20;74.90
3678;DHT22;1855;50.934;6.958;2023-03-13T11:33:35;18.20;73.80
3678;DHT22;1855;50.934;6.958;2023-03-13T11:36:13;18.40;73.80
3678;DHT22;1855;50.934;6.958;2023-03-13T11:38:42;18.30;74.40
3678;DHT22;1855;50.934;6.958;2023-03-13T11:41:41;18.20;74.70
3678;DHT22;1855;50.934;6.958;2023-03-13T11:44:23;18.50;73.90
3678;DHT22;1855;50.934;6.958;2023-03-13T11:47:03;18.20;73.70
3678;DHT22;1855;50.934;6.958;2023-03-13T11:49:56;17.90;76.00
3678;DHT22;1855;50.934;6.958;2023-03-13T11:52:40;18.10;75.10
3678;DHT22;1855;50.934;6.958;2023-03-13T11:58:28;19.70;66.20
3678;DHT22;1855;50.934;6.958;2023-03-13T12:00:58;19.10;66.80
3678;DHT22;1855;50.934;6.958;2023-03-13T12:03:32;18.50;70.40
3678;DHT22;1855;50.934;6.958;2023-03-13T12:06:02;18.00;73.00
3678;DHT22;1855;50.934;6.958;2023-03-13T12:08:34;17.80;74.10
3678;DHT22;1855;50.934;6.958;2023-03-13T12:11:09;17.60;74.80
3678;DHT22;1855;50.934;6.958;2023-03-13T12:13:40;17.60;75.90
3678;DHT22;1855;50.934;6.958;2023-03-13T12:16:11;17.40;76.30
3678;DHT22;1855;50.934;6.958;2023-03-13T12:18:40;17.30;77.20
3678;DHT22;1855;50.934;6.958;2023-03-13T12:21:16;17.60;73.60
3678;DHT22;1855;50.934;6.958;2023-03-13T12:23:51;17.70;71.60
3678;DHT22;1855;50.934;6.958;2023-03-13T12:26:24;17.80;71.20
3678;DHT22;1855;50.934;6.958;2023-03-13T12:29:02;18.20;68.00
3678;DHT22;1855;50.934;6.958;2023-03-13T12:31:35;18.20;67.70
3678;DHT22;1855;50.934;6.958;2023-03-13T12:34:11;18.60;65.70
3678;DHT22;1855;50.934;6.958;2023-03-13T12:36:42;18.60;66.30
3678;DHT22;1855;50.934;6.958;2023-03-13T12:39:21;18.40;67.10
3678;DHT22;1855;50.934;6.958;2023-03-13T12:42:00;18.30;67.70
3678;DHT22;1855;50.934;6.958;2023-03-13T12:44:32;18.30;68.30
3678;DHT22;1855;50.934;6.958;2023-03-13T12:47:07;18.00;67.90
3678;DHT22;1855;50.934;6.958;2023-03-13T12:50:04;17.70;70.20
3678;DHT22;1855;50.934;6.958;2023-03-13T12:52:51;17.80;70.70
3678;DHT22;1855;50.934;6.958;2023-03-13T12:55:40;18.10;71.60
3678;DHT22;1855;50.934;6.958;2023-03-13T12:58:20;18.90;65.50
3678;DHT22;1855;50.934;6.958;2023-03-13T13:00:49;18.30;66.70
3678;DHT22;1855;50.934;6.958;2023-03-13T13:03:26;17.80;69.90
3678;DHT22;1855;50.934;6.958;2023-03-13T13:06:02;18.00;69.90
3678;DHT22;1855;50.934;6.958;2023-03-13T13:08:36;18.30;67.80
3678;DHT22;1855;50.934;6.958;2023-03-13T13:11:42;18.10;68.40
3678;DHT22;1855;50.934;6.958;2023-03-13T13:17:27;18.00;70.20
3678;DHT22;1855;50.934;6.958;2023-03-13T13:19:56;17.90;70.50
3678;DHT22;1855;50.934;6.958;2023-03-13T13:22:45;17.70;71.90
3678;DHT22;1855;50.934;6.958;2023-03-13T13:25:33;17.70;72.30
3678;DHT22;1855;50.934;6.958;2023-03-13T13:28:22;17.40;75.30
3678;DHT22;1855;50.934;6.958;2023-03-13T13:30:53;17.20;77.00
3678;DHT22;1855;50.934;6.958;2023-03-13T13:33:37;16.90;78.40
3678;DHT22;1855;50.934;6.958;2023-03-13T13:38:57;16.70;80.10
3678;DHT22;1855;50.934;6.958;2023-03-13T13:41:35;16.70;81.00
3678;DHT22;1855;50.934;6.958;2023-03-13T13:44:32;16.70;81.20
3678;DHT22;1855;50.934;6.958;2023-03-13T13:46:58;16.80;80.80
3678;DHT22;1855;50.934;6.958;2023-03-13T13:49:35;16.70;81.30
3678;DHT22;1855;50.934;6.958;2023-03-13T13:52:31;16.70;82.40
3678;DHT22;1855;50.934;6.958;2023-03-13T13:54:58;16.50;83.80
3678;DHT22;1855;50.934;6.958;2023-03-13T13:57:26;16.40;84.40
3678;DHT22;1855;50.934;6.958;2023-03-13T14:00:00;16.50;84.90
3678;DHT22;1855;50.934;6.958;2023-03-13T14:02:33;16.70;84.10
3678;DHT22;1855;50.934;6.958;2023-03-13T14:05:06;17.20;82.30
3678;DHT22;1855;50.934;6.958;2023-03-13T14:07:50;17.50;80.80
3678;DHT22;1855;50.934;6.958;2023-03-13T14:10:33;17.40;80.10
3678;DHT22;1855;50.934;6.958;2023-03-13T14:13:02;17.70;79.20
3678;DHT22;1855;50.934;6.958;2023-03-13T14:15:32;18.00;76.50
3678;DHT22;1855;50.934;6.958;2023-03-13T14:18:09;18.00;75.40
3678;DHT22;1855;50.934;6.958;2023-03-13T14:20:38;18.20;75.00
3678;DHT22;1855;50.934;6.958;2023-03-13T14:23:06;18.80;71.90
3678;DHT22;1855;50.934;6.958;2023-03-13T14:25:43;18.80;69.80
3678;DHT22;1855;50.934;6.958;2023-03-13T14:28:21;18.60;71.40
3678;DHT22;1855;50.934;6.958;2023-03-13T14:30:51;18.20;71.50
3678;DHT22;1855;50.934;6.958;2023-03-13T14:33:18;18.00;73.60
3678;DHT22;1855;50.934;6.958;2023-03-13T14:35:46;17.60;75.90
3678;DHT22;1855;50.934;6.958;2023-03-13T14:38:18;17.50;75.80
3678;DHT22;1855;50.934;6.958;2023-03-13T14:40:45;17.30;76.10
3678;DHT22;1855;50.934;6.958;2023-03-13T14:43:23;17.20;77.10
3678;DHT22;1855;50.934;6.958;2023-03-13T14:45:52;17.10;78.50
3678;DHT22;1855;50.934;6.958;2023-03-13T14:48:21;17.00;78.30
3678;DHT22;1855;50.934;6.958;2023-03-13T14:50:50;16.80;79.10
3678;DHT22;1855;50.934;6.958;2023-03-13T14:53:19;16.70;79.70
3678;DHT22;1855;50.934;6.958;2023-03-13T14:55:47;16.70;79.60
3678;DHT22;1855;50.934;6.958;2023-03-13T14:58:28;16.80;80.60
3678;DHT22;1855;50.934;6.958;2023-03-13T15:00:56;16.80;79.70
3678;DHT22;1855;50.934;6.958;2023-03-13T15:03:29;16.80;79.30
3678;DHT22;1855;50.934;6.958;2023-03-13T15:06:20;16.80;79.90
3678;DHT22;1855;50.934;6.958;2023-03-13T15:08:48;16.80;79.80
3678;DHT22;1855;50.934;6.958;2023-03-13T15:11:27;16.80;79.40
3678;DHT22;1855;50.934;6.958;2023-03-13T15:13:55;16.80;79.00
3678;DHT22;1855;50.934;6.958;2023-03-13T15:16:24;16.80;78.40
3678;DHT22;1855;50.934;6.958;2023-03-13T15:18:53;16.90;78.20
3678;DHT22;1855;50.934;6.958;2023-03-13T15:21:26;17.00;77.80
3678;DHT22;1855;50.934;6.958;2023-03-13T15:23:57;16.90;77.30
3678;DHT22;1855;50.934;6.958;2023-03-13T15:26:25;16.80;78.70
3678;DHT22;1855;50.934;6.958;2023-03-13T15:28:52;16.70;78.80
3678;DHT22;1855;50.934;6.958;2023-03-13T15:31:19;16.60;79.10
3678;DHT22;1855;50.934;6.958;2023-03-13T15:33:55;16.50;78.50
3678;DHT22;1855;50.934;6.958;2023-03-13T15:36:22;16.50;78.90
3678;DHT22;1855;50.934;6.958;2023-03-13T15:38:49;16.50;79.80
3678;DHT22;1855;50.934;6.958;2023-03-13T15:41:16;16.50;78.40
3678;DHT22;1855;50.934;6.958;2023-03-13T15:43:43;16.50;78.30
3678;DHT22;1855;50.934;6.958;2023-03-13T15:46:11;16.40;77.10
3678;DHT22;1855;50.934;6.958;2023-03-13T15:48:38;16.50;77.00
3678;DHT22;1855;50.934;6.958;2023-03-13T15:51:12;16.40;76.90
3678;DHT22;1855;50.934;6.958;2023-03-13T15:53:40;16.40;77.10
3678;DHT22;1855;50.934;6.958;2023-03-13T15:56:14;17.00;73.60
3678;DHT22;1855;50.934;6.958;2023-03-13T15:58:41;17.70;69.60
3678;DHT22;1855;50.934;6.958;2023-03-13T16:01:09;18.70;62.90
3678;DHT22;1855;50.934;6.958;2023-03-13T16:03:36;19.70;58.20
3678;DHT22;1855;50.934;6.958;2023-03-13T16:06:12;20.70;55.40
3678;DHT22;1855;50.934;6.958;2023-03-13T16:08:40;21.70;51.50
3678;DHT22;1855;50.934;6.958;2023-03-13T16:11:06;21.60;49.30
3678;DHT22;1855;50.934;6.958;2023-03-13T16:13:33;21.90;48.50
3678;DHT22;1855;50.934;6.958;2023-03-13T16:16:00;21.70;48.20
3678;DHT22;1855;50.934;6.958;2023-03-13T16:18:27;21.40;49.20
3678;DHT22;1855;50.934;6.958;2023-03-13T16:20:54;21.80;48.80
3678;DHT22;1855;50.934;6.958;2023-03-13T16:23:22;21.80;48.60
3678;DHT22;1855;50.934;6.958;2023-03-13T16:25:49;21.90;48.90
3678;DHT22;1855;50.934;6.958;2023-03-13T16:28:15;22.10;48.10